createdAt,value
2018-08-28T00:00:25.078Z,0
2018-08-28T00:01:25.112Z,0
2018-08-28T00:02:25.128Z,0
2018-08-28T00:03:24.892Z,0
2018-08-28T00:04:25.173Z,0
2018-08-28T00:05:24.937Z,0
2018-08-28T00:06:25.218Z,0
2018-08-28T00:07:24.984Z,0
2018-08-28T00:08:39.928Z,0
2018-08-28T00:09:25.033Z,0
2018-08-28T00:10:25.055Z,0
2018-08-28T00:11:25.345Z,0
2018-08-28T00:12:25.364Z,0
2018-08-28T00:14:40.072Z,0
2018-08-28T00:15:25.434Z,0
2018-08-28T00:16:40.113Z,0
2018-08-28T00:17:25.478Z,0
2018-08-28T00:18:25.508Z,0
2018-08-28T00:19:25.013Z,0
2018-08-28T00:20:25.554Z,0
2018-08-28T00:21:25.571Z,0
2018-08-28T00:22:25.337Z,0
2018-08-28T00:23:54.943Z,0
2018-08-28T00:24:25.649Z,0
2018-08-28T00:25:25.666Z,0
2018-08-28T00:26:25.690Z,0
2018-08-28T00:27:25.459Z,0
2018-08-28T00:29:25.518Z,0
2018-08-28T00:31:25.912Z,0
2018-08-28T00:32:25.830Z,0
2018-08-28T00:33:25.860Z,0
2018-08-28T00:34:25.623Z,0
2018-08-28T00:35:25.905Z,0
2018-08-28T00:36:25.923Z,0
2018-08-28T00:37:25.689Z,0
2018-08-28T00:38:25.973Z,0
2018-08-28T00:39:40.658Z,0
2018-08-28T00:40:26.018Z,0
2018-08-28T00:41:40.707Z,0
2018-08-28T00:42:26.067Z,0
2018-08-28T00:43:25.572Z,0
2018-08-28T00:44:26.121Z,0
2018-08-28T00:45:26.142Z,0
2018-08-28T00:46:26.164Z,0
2018-08-28T00:47:40.844Z,0
2018-08-28T00:48:40.869Z,0
2018-08-28T00:49:26.231Z,0
2018-08-28T00:50:40.656Z,0
2018-08-28T00:51:26.018Z,0
2018-08-28T00:52:26.552Z,0
2018-08-28T00:53:26.321Z,0
2018-08-28T00:54:26.087Z,0
2018-08-28T00:55:41.040Z,0
2018-08-28T00:56:25.889Z,0
2018-08-28T00:57:26.416Z,0
2018-08-28T00:59:26.476Z,0
2018-08-28T01:00:25.973Z,0
2018-08-28T01:01:41.173Z,0
2018-08-28T01:02:26.534Z,0
2018-08-28T01:03:41.220Z,0
2018-08-28T01:04:26.579Z,0
2018-08-28T01:05:26.604Z,0
2018-08-28T01:06:26.633Z,0
2018-08-28T01:07:26.396Z,0
2018-08-28T01:08:41.338Z,0
2018-08-28T01:09:41.362Z,0
2018-08-28T01:10:26.463Z,0
2018-08-28T01:11:41.147Z,0
2018-08-28T01:12:26.508Z,0
2018-08-28T01:13:26.801Z,0
2018-08-28T01:14:26.621Z,0
2018-08-28T01:15:26.845Z,0
2018-08-28T01:16:26.861Z,0
2018-08-28T01:17:26.631Z,0
2018-08-28T01:18:26.909Z,0
2018-08-28T01:19:26.676Z,0
2018-08-28T01:20:26.959Z,0
2018-08-28T01:21:26.462Z,0
2018-08-28T01:22:26.743Z,0
2018-08-28T01:23:26.773Z,0
2018-08-28T01:24:26.532Z,0
2018-08-28T01:25:26.813Z,0
2018-08-28T01:26:41.768Z,0
2018-08-28T01:27:26.864Z,0
2018-08-28T01:28:26.887Z,0
2018-08-28T01:29:27.163Z,0
2018-08-28T01:31:27.222Z,0
2018-08-28T01:32:27.245Z,0
2018-08-28T01:33:27.359Z,0
2018-08-28T01:34:27.304Z,0
2018-08-28T01:35:27.304Z,0
2018-08-28T01:36:27.330Z,0
2018-08-28T01:37:27.353Z,0
2018-08-28T01:38:27.379Z,0
2018-08-28T01:39:27.407Z,0
2018-08-28T01:40:27.422Z,0
2018-08-28T01:41:27.551Z,0
2018-08-28T01:42:27.470Z,0
2018-08-28T01:43:42.157Z,0
2018-08-28T01:44:27.517Z,0
2018-08-28T01:45:41.942Z,0
2018-08-28T01:46:27.564Z,0
2018-08-28T01:47:27.598Z,0
2018-08-28T01:48:27.611Z,0
2018-08-28T01:49:42.295Z,0
2018-08-28T01:50:27.656Z,0
2018-08-28T01:51:27.680Z,0
2018-08-28T01:52:27.451Z,0
2018-08-28T01:53:27.480Z,0
2018-08-28T01:54:27.501Z,0
2018-08-28T01:55:27.257Z,0
2018-08-28T01:56:27.549Z,0
2018-08-28T01:57:27.564Z,0
2018-08-28T01:58:42.512Z,0
2018-08-28T01:59:42.530Z,0
2018-08-28T02:00:27.901Z,0
2018-08-28T02:01:27.914Z,0
2018-08-28T02:02:27.944Z,0
2018-08-28T02:03:27.967Z,0
2018-08-28T02:04:27.726Z,0
2018-08-28T02:05:42.680Z,0
2018-08-28T02:06:28.042Z,0
2018-08-28T02:07:28.052Z,0
2018-08-28T02:08:27.569Z,0
2018-08-28T02:09:27.845Z,0
2018-08-28T02:10:28.126Z,0
2018-08-28T02:11:28.147Z,0
2018-08-28T02:12:27.914Z,0
2018-08-28T02:13:28.052Z,0
2018-08-28T02:14:42.627Z,0
2018-08-28T02:15:28.247Z,0
2018-08-28T02:16:28.271Z,0
2018-08-28T02:17:28.032Z,0
2018-08-28T02:18:42.715Z,0
2018-08-28T02:20:28.100Z,0
2018-08-28T02:21:28.381Z,0
2018-08-28T02:22:28.148Z,0
2018-08-28T02:23:43.089Z,0
2018-08-28T02:24:42.854Z,0
2018-08-28T02:25:28.485Z,0
2018-08-28T02:26:28.241Z,0
2018-08-28T02:27:28.518Z,0
2018-08-28T02:28:28.287Z,0
2018-08-28T02:29:28.567Z,0
2018-08-28T02:30:57.948Z,0
2018-08-28T02:31:28.618Z,0
2018-08-28T02:32:28.646Z,0
2018-08-28T02:33:28.782Z,0
2018-08-28T02:34:28.432Z,0
2018-08-28T02:35:28.717Z,0
2018-08-28T02:36:28.735Z,0
2018-08-28T02:37:28.756Z,0
2018-08-28T02:39:28.548Z,0
2018-08-28T02:40:28.821Z,0
2018-08-28T02:41:28.863Z,0
2018-08-28T02:42:28.871Z,0
2018-08-28T02:43:28.902Z,0
2018-08-28T02:44:28.921Z,0
2018-08-28T02:45:28.962Z,0
2018-08-28T02:46:58.287Z,0
2018-08-28T02:47:28.735Z,0
2018-08-28T02:48:29.010Z,0
2018-08-28T02:49:29.033Z,0
2018-08-28T02:50:28.801Z,0
2018-08-28T02:51:29.082Z,0
2018-08-28T02:52:28.843Z,0
2018-08-28T02:53:29.124Z,0
2018-08-28T02:54:43.812Z,0
2018-08-28T02:55:28.917Z,0
2018-08-28T02:56:29.360Z,0
2018-08-28T02:57:28.963Z,0
2018-08-28T02:58:29.243Z,0
2018-08-28T03:01:43.977Z,0
2018-08-28T03:02:29.082Z,0
2018-08-28T03:03:29.362Z,0
2018-08-28T03:04:29.127Z,0
2018-08-28T03:05:43.551Z,0
2018-08-28T03:06:29.431Z,0
2018-08-28T03:07:29.197Z,0
2018-08-28T03:08:29.473Z,0
2018-08-28T03:09:29.505Z,0
2018-08-28T03:10:29.524Z,0
2018-08-28T03:11:29.778Z,0
2018-08-28T03:12:29.328Z,0
2018-08-28T03:13:29.334Z,0
2018-08-28T03:14:28.839Z,0
2018-08-28T03:15:29.448Z,0
2018-08-28T03:16:29.667Z,0
2018-08-28T03:17:29.429Z,0
2018-08-28T03:18:44.370Z,0
2018-08-28T03:19:29.755Z,0
2018-08-28T03:20:29.754Z,0
2018-08-28T03:21:29.779Z,0
2018-08-28T03:22:29.803Z,0
2018-08-28T03:23:29.834Z,0
2018-08-28T03:24:29.855Z,0
2018-08-28T03:25:29.877Z,0
2018-08-28T03:26:29.895Z,0
2018-08-28T03:27:44.316Z,0
2018-08-28T03:28:29.686Z,0
2018-08-28T03:29:29.968Z,0
2018-08-28T03:30:29.997Z,0
2018-08-28T03:31:30.047Z,0
2018-08-28T03:33:44.713Z,0
2018-08-28T03:34:30.081Z,0
2018-08-28T03:35:30.144Z,0
2018-08-28T03:36:30.133Z,0
2018-08-28T03:37:29.628Z,0
2018-08-28T03:38:30.182Z,0
2018-08-28T03:39:29.939Z,0
2018-08-28T03:40:29.957Z,0
2018-08-28T03:41:29.993Z,0
2018-08-28T03:42:44.924Z,4
2018-08-28T03:43:30.025Z,4
2018-08-28T03:44:30.051Z,4
2018-08-28T03:45:30.335Z,0
2018-08-28T03:46:30.354Z,4
2018-08-28T03:47:30.378Z,4
2018-08-28T03:48:30.413Z,4
2018-08-28T03:49:45.085Z,8
2018-08-28T03:50:30.447Z,4
2018-08-28T03:51:29.955Z,8
2018-08-28T03:52:30.492Z,8
2018-08-28T03:53:30.518Z,12
2018-08-28T03:54:30.540Z,12
2018-08-28T03:55:45.316Z,16
2018-08-28T03:56:30.597Z,20
2018-08-28T03:57:30.354Z,24
2018-08-28T03:58:30.630Z,24
2018-08-28T03:59:45.057Z,28
2018-08-28T04:00:30.421Z,32
2018-08-28T04:01:30.713Z,32
2018-08-28T04:02:30.728Z,36
2018-08-28T04:03:30.806Z,40
2018-08-28T04:04:45.434Z,48
2018-08-28T04:05:45.195Z,48
2018-08-28T04:06:30.562Z,52
2018-08-28T04:07:30.845Z,56
2018-08-28T04:08:30.614Z,64
2018-08-28T04:10:30.915Z,76
2018-08-28T04:11:45.589Z,88
2018-08-28T04:12:30.961Z,92
2018-08-28T04:13:30.979Z,100
2018-08-28T04:15:31.028Z,116
2018-08-28T04:16:31.052Z,124
2018-08-28T04:17:31.071Z,136
2018-08-28T04:18:31.094Z,144
2018-08-28T04:20:31.143Z,168
2018-08-28T04:21:45.829Z,180
2018-08-28T04:22:31.355Z,192
2018-08-28T04:23:45.871Z,212
2018-08-28T04:25:31.260Z,248
2018-08-28T04:26:31.285Z,268
2018-08-28T04:28:45.991Z,316
2018-08-28T04:29:46.014Z,340
2018-08-28T04:30:31.035Z,364
2018-08-28T04:31:31.145Z,392
2018-08-28T04:32:31.431Z,420
2018-08-28T04:33:31.183Z,444
2018-08-28T04:34:31.467Z,476
2018-08-28T04:35:46.155Z,516
2018-08-28T04:36:46.173Z,540
2018-08-28T04:37:31.283Z,556
2018-08-28T04:38:31.563Z,580
2018-08-28T04:39:31.333Z,624
2018-08-28T04:40:31.608Z,676
2018-08-28T04:41:31.629Z,736
2018-08-28T04:42:31.648Z,804
2018-08-28T04:43:46.078Z,884
2018-08-28T04:44:31.697Z,940
2018-08-28T04:45:31.469Z,1016
2018-08-28T04:46:31.739Z,1084
2018-08-28T04:47:31.769Z,1160
2018-08-28T04:48:31.612Z,1212
2018-08-28T04:49:31.559Z,1328
2018-08-28T04:50:31.580Z,1520
2018-08-28T04:51:31.862Z,1656
2018-08-28T04:52:31.623Z,1732
2018-08-28T04:53:31.651Z,1812
2018-08-28T04:54:46.343Z,1876
2018-08-28T04:55:31.743Z,1904
2018-08-28T04:56:31.724Z,1920
2018-08-28T04:57:31.999Z,1904
2018-08-28T04:58:32.017Z,1852
2018-08-28T04:59:32.048Z,1804
2018-08-28T05:00:46.554Z,1816
2018-08-28T05:01:32.095Z,1856
2018-08-28T05:02:46.526Z,1896
2018-08-28T05:03:31.619Z,1896
2018-08-28T05:04:32.169Z,1848
2018-08-28T05:06:31.952Z,2004
2018-08-28T05:07:32.226Z,2040
2018-08-28T05:08:46.653Z,2112
2018-08-28T05:09:32.276Z,2200
2018-08-28T05:10:32.304Z,2256
2018-08-28T05:11:32.319Z,2268
2018-08-28T05:12:32.097Z,2200
2018-08-28T05:14:32.444Z,2104
2018-08-28T05:15:32.422Z,2092
2018-08-28T05:16:32.178Z,2084
2018-08-28T05:17:32.206Z,2116
2018-08-28T05:18:32.221Z,2192
2018-08-28T05:19:46.907Z,2260
2018-08-28T05:20:32.576Z,2312
2018-08-28T05:21:32.556Z,2384
2018-08-28T05:22:32.315Z,2460
2018-08-28T05:23:32.596Z,2612
2018-08-28T05:24:47.025Z,2828
2018-08-28T05:25:32.640Z,2952
2018-08-28T05:26:32.666Z,3104
2018-08-28T05:28:32.710Z,3388
2018-08-28T05:29:32.704Z,3512
2018-08-28T05:30:33.162Z,3568
2018-08-28T05:31:32.527Z,3636
2018-08-28T05:32:32.872Z,3700
2018-08-28T05:33:32.837Z,3744
2018-08-28T05:34:47.257Z,3784
2018-08-28T05:35:32.627Z,3784
2018-08-28T05:36:32.900Z,3780
2018-08-28T05:37:32.664Z,3744
2018-08-28T05:38:32.967Z,3748
2018-08-28T05:39:32.717Z,3896
2018-08-28T05:40:47.656Z,4140
2018-08-28T05:41:47.686Z,4480
2018-08-28T05:42:32.781Z,4776
2018-08-28T05:43:32.806Z,5224
2018-08-28T05:44:32.833Z,5500
2018-08-28T05:45:32.851Z,5728
2018-08-28T05:46:32.618Z,6008
2018-08-28T05:47:33.165Z,6292
2018-08-28T05:48:47.851Z,6680
2018-08-28T05:49:33.370Z,7188
2018-08-28T05:50:47.897Z,7304
2018-08-28T05:51:33.254Z,7824
2018-08-28T05:52:33.013Z,8512
2018-08-28T05:53:33.297Z,9868
2018-08-28T05:54:33.076Z,10112
2018-08-28T05:55:33.343Z,11156
2018-08-28T05:56:48.032Z,15104
2018-08-28T05:57:33.135Z,12612
2018-08-28T05:58:33.418Z,19072
2018-08-28T06:01:33.490Z,21312
2018-08-28T06:02:48.175Z,22240
2018-08-28T06:03:34.547Z,22496
2018-08-28T06:04:33.558Z,20128
2018-08-28T06:05:33.584Z,24256
2018-08-28T06:06:33.630Z,24448
2018-08-28T06:07:33.639Z,25760
2018-08-28T06:08:33.659Z,26144
2018-08-28T06:09:33.685Z,26752
2018-08-28T06:10:48.375Z,21600
2018-08-28T06:11:48.404Z,16192
2018-08-28T06:12:33.759Z,17824
2018-08-28T06:13:33.791Z,20544
2018-08-28T06:14:33.620Z,21600
2018-08-28T06:15:33.584Z,20224
2018-08-28T06:16:33.869Z,17696
2018-08-28T06:17:48.553Z,17728
2018-08-28T06:18:33.909Z,18688
2018-08-28T06:19:33.431Z,30720
2018-08-28T06:20:33.993Z,32064
2018-08-28T06:21:33.739Z,30848
2018-08-28T06:22:33.766Z,28928
2018-08-28T06:23:34.064Z,28544
2018-08-28T06:24:33.557Z,28032
2018-08-28T06:25:33.853Z,24960
2018-08-28T06:26:34.568Z,27968
2018-08-28T06:27:33.893Z,32064
2018-08-28T06:28:34.177Z,34528
2018-08-28T06:29:33.944Z,35168
2018-08-28T06:30:34.232Z,34912
2018-08-28T06:31:34.004Z,33568
2018-08-28T06:32:34.285Z,33792
2018-08-28T06:33:34.318Z,29408
2018-08-28T06:34:49.002Z,31520
2018-08-28T06:35:34.377Z,37280
2018-08-28T06:36:34.140Z,37088
2018-08-28T06:37:49.363Z,36832
2018-08-28T06:38:34.198Z,37632
2018-08-28T06:39:49.160Z,37504
2018-08-28T06:40:34.280Z,37824
2018-08-28T06:42:34.583Z,38432
2018-08-28T06:43:49.407Z,38432
2018-08-28T06:44:34.625Z,39040
2018-08-28T06:45:34.652Z,40192
2018-08-28T06:46:34.690Z,40704
2018-08-28T06:47:34.449Z,39424
2018-08-28T06:48:34.496Z,39488
2018-08-28T06:49:34.660Z,40320
2018-08-28T06:50:34.812Z,42048
2018-08-28T06:51:34.827Z,39296
2018-08-28T06:52:34.868Z,44416
2018-08-28T06:53:34.893Z,44096
2018-08-28T06:54:34.929Z,37536
2018-08-28T06:55:34.961Z,30592
2018-08-28T06:56:34.458Z,45984
2018-08-28T06:57:35.007Z,47104
2018-08-28T06:59:49.836Z,47616
2018-08-28T07:00:34.854Z,46976
2018-08-28T07:01:35.134Z,46208
2018-08-28T07:02:35.626Z,47040
2018-08-28T07:03:34.665Z,48480
2018-08-28T07:04:34.969Z,48768
2018-08-28T07:05:49.912Z,50304
2018-08-28T07:06:35.281Z,50720
2018-08-28T07:07:35.302Z,52256
2018-08-28T07:08:35.557Z,34912
2018-08-28T07:09:35.370Z,49088
2018-08-28T07:10:50.072Z,56736
2018-08-28T07:11:35.175Z,56448
2018-08-28T07:12:50.135Z,55520
2018-08-28T07:13:35.514Z,32576
2018-08-28T07:14:35.535Z,57600
2018-08-28T07:15:50.211Z,57056
2018-08-28T07:16:35.321Z,55808
2018-08-28T07:17:50.014Z,51232
2018-08-28T07:18:35.175Z,39968
2018-08-28T07:19:35.425Z,29984
2018-08-28T07:20:35.457Z,56896
2018-08-28T07:21:35.737Z,59072
2018-08-28T07:22:35.515Z,59584
2018-08-28T07:23:35.796Z,60832
2018-08-28T07:24:35.838Z,63520
2018-08-28T07:25:50.831Z,58272
2018-08-28T07:26:35.895Z,56480
2018-08-28T07:27:35.406Z,60288
2018-08-28T07:28:35.696Z,60448
2018-08-28T07:29:35.731Z,58688
2018-08-28T07:30:35.761Z,57696
2018-08-28T07:31:50.596Z,56512
2018-08-28T07:32:36.082Z,55808
2018-08-28T07:33:36.112Z,56768
2018-08-28T07:34:35.886Z,56960
2018-08-28T07:35:36.177Z,55520
2018-08-28T07:36:35.952Z,55680
2018-08-28T07:37:36.633Z,56640
2018-08-28T07:38:36.033Z,56000
2018-08-28T07:39:36.056Z,54816
2018-08-28T07:40:36.350Z,55936
2018-08-28T07:41:35.856Z,56992
2018-08-28T07:42:36.147Z,55904
2018-08-28T07:43:36.445Z,54208
2018-08-28T07:44:36.212Z,54784
2018-08-28T07:45:36.244Z,54976
2018-08-28T07:46:50.939Z,54112
2018-08-28T07:47:51.230Z,54272
2018-08-28T07:48:36.806Z,53664
2018-08-28T07:49:36.636Z,51712
2018-08-28T07:50:36.667Z,52128
2018-08-28T07:51:36.439Z,55104
2018-08-28T07:52:36.737Z,49184
2018-08-28T07:53:36.506Z,51520
2018-08-28T07:55:36.829Z,35424
2018-08-28T07:56:36.866Z,52704
2018-08-28T07:57:36.377Z,49856
2018-08-28T07:58:36.925Z,48768
2018-08-28T07:59:36.698Z,51616
2018-08-28T08:00:36.734Z,50688
2018-08-28T08:01:37.420Z,52832
2018-08-28T08:02:37.059Z,52224
2018-08-28T08:04:37.123Z,51584
2018-08-28T08:05:37.154Z,50080
2018-08-28T08:06:37.186Z,51168
2018-08-28T08:07:37.224Z,51552
2018-08-28T08:08:51.661Z,51232
2018-08-28T08:09:37.295Z,52000
2018-08-28T08:10:52.312Z,52192
2018-08-28T08:11:37.351Z,51360
2018-08-28T08:12:37.387Z,51328
2018-08-28T08:13:37.172Z,50048
2018-08-28T08:14:37.194Z,48320
2018-08-28T08:15:37.702Z,45984
2018-08-28T08:16:37.517Z,43776
2018-08-28T08:17:37.035Z,44192
2018-08-28T08:19:06.910Z,45600
2018-08-28T08:20:52.052Z,22752
2018-08-28T08:21:37.424Z,43424
2018-08-28T08:22:52.117Z,47552
2018-08-28T08:23:37.235Z,45920
2018-08-28T08:24:37.780Z,44288
2018-08-28T08:25:52.474Z,40384
2018-08-28T08:26:37.844Z,42272
2018-08-28T08:27:52.774Z,45312
2018-08-28T08:28:37.650Z,45312
2018-08-28T08:29:37.686Z,44448
2018-08-28T08:30:37.972Z,44544
2018-08-28T08:31:37.745Z,43008
2018-08-28T08:32:37.523Z,42432
2018-08-28T08:33:52.747Z,40960
2018-08-28T08:34:52.513Z,41728
2018-08-28T08:35:38.140Z,41888
2018-08-28T08:36:38.284Z,41344
2018-08-28T08:37:52.866Z,43424
2018-08-28T08:39:38.266Z,41888
2018-08-28T08:40:38.305Z,42016
2018-08-28T08:41:38.333Z,40928
2018-08-28T08:42:53.031Z,38912
2018-08-28T08:43:53.065Z,36608
2018-08-28T08:44:38.429Z,40416
2018-08-28T08:45:38.207Z,39808
2018-08-28T08:46:38.238Z,39776
2018-08-28T08:47:38.272Z,38656
2018-08-28T08:48:38.561Z,38432
2018-08-28T08:49:38.597Z,38304
2018-08-28T08:50:53.291Z,38144
2018-08-28T08:51:38.501Z,37344
2018-08-28T08:52:38.708Z,27360
2018-08-28T08:53:38.727Z,35456
2018-08-28T08:54:38.504Z,35584
2018-08-28T08:55:38.800Z,34080
2018-08-28T08:56:38.827Z,30208
2018-08-28T08:57:39.052Z,27776
2018-08-28T08:58:53.549Z,27200
2018-08-28T08:59:39.017Z,26912
2018-08-28T09:00:38.953Z,26752
2018-08-28T09:01:38.992Z,26624
2018-08-28T09:02:39.030Z,26496
2018-08-28T09:03:39.050Z,26304
2018-08-28T09:04:39.087Z,26144
2018-08-28T09:05:39.117Z,26016
2018-08-28T09:06:53.836Z,26080
2018-08-28T09:07:39.186Z,26176
2018-08-28T09:08:53.616Z,25888
2018-08-28T09:09:39.242Z,25920
2018-08-28T09:10:39.292Z,25888
2018-08-28T09:11:39.308Z,25280
2018-08-28T09:13:39.010Z,25088
2018-08-28T09:14:39.410Z,24896
2018-08-28T09:15:39.438Z,24832
2018-08-28T09:18:39.530Z,19712
2018-08-28T09:19:39.310Z,21248
2018-08-28T09:20:39.339Z,24832
2018-08-28T09:21:54.039Z,24672
2018-08-28T09:22:39.663Z,24544
2018-08-28T09:23:54.100Z,24672
2018-08-28T09:24:54.397Z,24544
2018-08-28T09:25:39.242Z,24192
2018-08-28T09:26:39.791Z,17952
2018-08-28T09:27:39.822Z,23488
2018-08-28T09:28:54.535Z,22688
2018-08-28T09:29:39.729Z,22560
2018-08-28T09:30:39.923Z,22624
2018-08-28T09:31:40.347Z,22560
2018-08-28T09:32:39.986Z,22880
2018-08-28T09:33:39.757Z,22464
2018-08-28T09:34:39.533Z,22464
2018-08-28T09:35:39.562Z,15476
2018-08-28T09:36:40.113Z,21856
2018-08-28T09:37:40.146Z,21664
2018-08-28T09:38:54.908Z,21696
2018-08-28T09:40:54.643Z,22272
2018-08-28T09:42:40.298Z,22464
2018-08-28T09:43:55.091Z,22432
2018-08-28T09:44:40.365Z,22304
2018-08-28T09:45:55.120Z,21952
2018-08-28T09:46:40.440Z,21440
2018-08-28T09:47:40.458Z,21216
2018-08-28T09:48:40.782Z,21792
2018-08-28T09:49:40.527Z,21728
2018-08-28T09:50:40.528Z,21760
2018-08-28T09:51:40.330Z,18400
2018-08-28T09:52:40.363Z,21568
2018-08-28T09:53:55.311Z,21664
2018-08-28T09:54:40.422Z,21536
2018-08-28T09:55:40.719Z,21984
2018-08-28T09:56:40.767Z,22016
2018-08-28T09:57:40.521Z,21600
2018-08-28T09:58:55.217Z,21184
2018-08-28T09:59:40.586Z,20928
2018-08-28T10:00:40.873Z,20896
2018-08-28T10:01:40.648Z,20768
2018-08-28T10:02:40.421Z,14328
2018-08-28T10:03:40.708Z,13808
2018-08-28T10:04:40.817Z,13768
2018-08-28T10:05:41.033Z,20576
2018-08-28T10:06:41.065Z,20896
2018-08-28T10:07:40.866Z,21120
2018-08-28T10:08:40.867Z,20800
2018-08-28T10:09:55.819Z,20576
2018-08-28T10:10:40.926Z,20672
2018-08-28T10:11:41.223Z,20640
2018-08-28T10:12:40.991Z,20800
2018-08-28T10:13:41.029Z,20544
2018-08-28T10:14:41.359Z,16456
2018-08-28T10:15:40.834Z,19040
2018-08-28T10:16:41.380Z,19744
2018-08-28T10:17:41.484Z,19680
2018-08-28T10:18:56.146Z,19552
2018-08-28T10:19:41.467Z,19616
2018-08-28T10:20:41.244Z,19616
2018-08-28T10:21:41.270Z,19296
2018-08-28T10:22:41.569Z,18816
2018-08-28T10:23:41.608Z,18720
2018-08-28T10:24:41.370Z,18656
2018-08-28T10:25:56.317Z,18784
2018-08-28T10:26:41.427Z,18720
2018-08-28T10:27:41.724Z,18496
2018-08-28T10:28:41.499Z,18368
2018-08-28T10:29:41.792Z,18016
2018-08-28T10:30:41.562Z,15696
2018-08-28T10:31:41.841Z,12672
2018-08-28T10:32:56.544Z,12756
2018-08-28T10:33:41.642Z,12676
2018-08-28T10:34:56.592Z,17216
2018-08-28T10:35:56.623Z,11672
2018-08-28T10:36:41.992Z,11368
2018-08-28T10:37:41.768Z,11268
2018-08-28T10:38:42.058Z,11312
2018-08-28T10:39:42.093Z,16348
2018-08-28T10:40:41.596Z,16456
2018-08-28T10:41:56.813Z,16524
2018-08-28T10:42:42.172Z,16608
2018-08-28T10:43:41.949Z,17088
2018-08-28T10:44:56.895Z,17280
2018-08-28T10:46:43.167Z,17248
2018-08-28T10:47:42.323Z,17504
2018-08-28T10:48:42.357Z,12748
2018-08-28T10:49:42.140Z,15968
2018-08-28T10:50:42.433Z,16816
2018-08-28T10:51:42.456Z,16672
2018-08-28T10:52:42.547Z,13280
2018-08-28T10:53:42.246Z,16388
2018-08-28T10:54:42.534Z,16216
2018-08-28T10:56:57.263Z,16072
2018-08-28T10:57:42.357Z,15904
2018-08-28T10:58:43.014Z,15484
2018-08-28T10:59:57.345Z,15148
2018-08-28T11:00:42.451Z,15172
2018-08-28T11:01:42.735Z,15068
2018-08-28T11:02:42.771Z,14820
2018-08-28T11:03:57.207Z,14936
2018-08-28T11:04:42.554Z,14928
2018-08-28T11:05:57.250Z,14740
2018-08-28T11:06:42.668Z,14600
2018-08-28T11:07:42.644Z,14464
2018-08-28T11:08:57.670Z,14356
2018-08-28T11:09:42.960Z,14220
2018-08-28T11:10:42.731Z,14112
2018-08-28T11:11:43.018Z,13952
2018-08-28T11:12:57.707Z,13776
2018-08-28T11:13:43.077Z,13800
2018-08-28T11:14:57.766Z,13688
2018-08-28T11:15:43.138Z,13540
2018-08-28T11:16:43.165Z,13412
2018-08-28T11:17:57.592Z,13088
2018-08-28T11:18:43.228Z,12868
2018-08-28T11:19:43.249Z,12592
2018-08-28T11:20:43.020Z,12304
2018-08-28T11:21:57.964Z,11980
2018-08-28T11:22:43.339Z,11784
2018-08-28T11:23:43.361Z,11556
2018-08-28T11:24:43.395Z,11396
2018-08-28T11:25:43.418Z,11396
2018-08-28T11:26:58.111Z,11384
2018-08-28T11:27:43.214Z,11208
2018-08-28T11:28:58.180Z,11388
2018-08-28T11:29:43.273Z,11600
2018-08-28T11:30:43.309Z,11800
2018-08-28T11:31:43.335Z,12004
2018-08-28T11:32:43.363Z,12080
2018-08-28T11:33:43.652Z,12072
2018-08-28T11:34:43.685Z,12108
2018-08-28T11:35:43.590Z,12136
2018-08-28T11:36:43.737Z,12256
2018-08-28T11:37:43.761Z,12204
2018-08-28T11:38:43.697Z,12144
2018-08-28T11:40:43.585Z,10912
2018-08-28T11:41:43.888Z,10476
2018-08-28T11:42:43.411Z,10576
2018-08-28T11:43:43.937Z,10820
2018-08-28T11:45:43.474Z,10340
2018-08-28T11:46:44.041Z,10120
2018-08-28T11:47:43.787Z,9908
2018-08-28T11:49:44.104Z,9740
2018-08-28T11:50:43.878Z,10392
2018-08-28T11:51:44.160Z,10104
2018-08-28T11:52:44.747Z,10192
2018-08-28T11:53:44.213Z,10240
2018-08-28T11:54:58.646Z,10476
2018-08-28T11:55:58.777Z,10484
2018-08-28T11:56:44.299Z,10980
2018-08-28T11:57:44.344Z,11548
2018-08-28T11:58:44.373Z,11492
2018-08-28T11:59:44.389Z,11428
2018-08-28T12:00:59.139Z,11464
2018-08-28T12:01:44.178Z,11548
2018-08-28T12:02:44.206Z,11660
2018-08-28T12:03:44.511Z,11796
2018-08-28T12:04:44.527Z,11900
2018-08-28T12:05:44.295Z,11988
2018-08-28T12:06:44.584Z,12072
2018-08-28T12:07:44.858Z,10964
2018-08-28T12:08:44.636Z,10852
2018-08-28T12:09:59.323Z,10520
2018-08-28T12:10:44.431Z,10340
2018-08-28T12:11:44.467Z,10144
2018-08-28T12:12:44.750Z,9996
2018-08-28T12:13:44.776Z,9836
2018-08-28T12:14:44.807Z,9588
2018-08-28T12:15:59.497Z,9256
2018-08-28T12:16:59.530Z,8984
2018-08-28T12:17:44.638Z,8784
2018-08-28T12:19:44.948Z,8164
2018-08-28T12:20:59.889Z,7872
2018-08-28T12:21:45.008Z,7792
2018-08-28T12:22:59.691Z,7896
2018-08-28T12:23:44.802Z,8416
2018-08-28T12:24:59.748Z,9324
2018-08-28T12:25:59.776Z,8208
2018-08-28T12:26:45.470Z,8364
2018-08-28T12:27:44.916Z,8676
2018-08-28T12:28:59.861Z,9144
2018-08-28T12:30:59.917Z,9072
2018-08-28T12:31:59.944Z,9080
2018-08-28T12:32:59.977Z,8920
2018-08-28T12:33:45.333Z,9032
2018-08-28T12:34:45.440Z,8684
2018-08-28T12:35:45.134Z,8696
2018-08-28T12:36:45.698Z,8680
2018-08-28T12:37:45.458Z,8784
2018-08-28T12:38:45.573Z,8928
2018-08-28T12:39:45.502Z,8700
2018-08-28T12:41:00.397Z,8768
2018-08-28T12:41:59.702Z,8736
2018-08-28T12:42:45.588Z,8788
2018-08-28T12:43:45.679Z,9484
2018-08-28T12:44:45.384Z,9152
2018-08-28T12:47:00.119Z,9116
2018-08-28T12:48:00.129Z,9136
2018-08-28T12:49:00.181Z,9300
2018-08-28T12:49:45.259Z,9420
2018-08-28T12:50:45.552Z,9568
2018-08-28T12:51:45.056Z,9808
2018-08-28T12:52:45.607Z,10248
2018-08-28T12:53:45.910Z,9888
2018-08-28T12:54:46.212Z,9812
2018-08-28T12:55:45.727Z,9568
2018-08-28T12:56:45.457Z,9492
2018-08-28T12:57:45.998Z,9724
2018-08-28T12:59:00.694Z,9460
2018-08-28T12:59:46.066Z,9512
2018-08-28T13:00:46.858Z,9440
2018-08-28T13:01:46.131Z,9388
2018-08-28T13:02:45.904Z,9396
2018-08-28T13:04:15.490Z,9372
2018-08-28T13:04:46.199Z,9380
2018-08-28T13:05:46.221Z,9476
2018-08-28T13:06:46.274Z,9352
2018-08-28T13:07:46.285Z,9368
2018-08-28T13:08:46.306Z,9464
2018-08-28T13:10:46.376Z,9932
2018-08-28T13:12:01.054Z,9836
2018-08-28T13:12:46.431Z,9832
2018-08-28T13:14:01.099Z,9912
2018-08-28T13:14:46.628Z,9944
2018-08-28T13:15:46.504Z,9956
2018-08-28T13:16:46.522Z,9928
2018-08-28T13:17:46.549Z,9996
2018-08-28T13:18:46.582Z,9996
2018-08-28T13:20:01.268Z,9956
2018-08-28T13:20:46.632Z,9896
2018-08-28T13:22:01.330Z,9828
2018-08-28T13:22:46.694Z,9800
2018-08-28T13:23:46.467Z,9756
2018-08-28T13:24:46.487Z,9620
2018-08-28T13:25:46.313Z,9584
2018-08-28T13:26:46.801Z,9552
2018-08-28T13:27:46.570Z,9344
2018-08-28T13:29:01.592Z,9104
2018-08-28T13:29:46.899Z,9016
2018-08-28T13:30:46.648Z,8936
2018-08-28T13:31:46.676Z,9004
2018-08-28T13:32:46.446Z,9144
2018-08-28T13:33:46.985Z,9784
2018-08-28T13:35:01.679Z,10152
2018-08-28T13:36:01.703Z,9980
2018-08-28T13:36:47.070Z,10072
2018-08-28T13:38:01.806Z,10216
2018-08-28T13:38:46.869Z,9784
2018-08-28T13:39:47.154Z,9800
2018-08-28T13:40:48.232Z,10092
2018-08-28T13:41:47.219Z,9660
2018-08-28T13:43:01.900Z,8436
2018-08-28T13:43:47.265Z,8664
2018-08-28T13:44:47.299Z,8364
2018-08-28T13:45:47.059Z,8032
2018-08-28T13:46:47.344Z,8128
2018-08-28T13:47:47.385Z,8404
2018-08-28T13:48:47.415Z,7660
2018-08-28T13:49:47.170Z,7504
2018-08-28T13:50:47.460Z,7336
2018-08-28T13:52:02.182Z,7120
2018-08-28T13:52:47.256Z,7108
2018-08-28T13:53:47.715Z,6968
2018-08-28T13:55:01.981Z,6788
2018-08-28T13:55:46.818Z,6664
2018-08-28T13:56:47.629Z,6588
2018-08-28T13:57:47.659Z,6512
2018-08-28T13:58:47.676Z,6468
2018-08-28T13:59:47.612Z,6456
2018-08-28T14:00:47.731Z,6464
2018-08-28T14:02:02.423Z,6448
2018-08-28T14:02:47.554Z,6436
2018-08-28T14:03:47.823Z,6428
2018-08-28T14:04:47.865Z,6440
2018-08-28T14:05:47.362Z,6448
2018-08-28T14:07:02.554Z,6444
2018-08-28T14:07:47.661Z,6460
2018-08-28T14:08:47.714Z,6456
2018-08-28T14:09:47.987Z,6428
2018-08-28T14:10:47.225Z,6408